createdAt,value
2019-05-02T00:01:02.138Z,22.87
2019-05-02T00:06:07.406Z,20.32
2019-05-02T00:11:11.007Z,20.43
2019-05-02T00:16:15.454Z,19.40
2019-05-02T00:21:19.216Z,18.23
2019-05-02T00:26:24.545Z,16.87
2019-05-02T00:31:28.097Z,16.40
2019-05-02T00:36:31.664Z,15.23
2019-05-02T00:41:38.379Z,16.02
2019-05-02T00:46:40.528Z,14.03
2019-05-02T00:51:44.135Z,14.87
2019-05-02T00:56:47.688Z,14.70
2019-05-02T01:01:52.823Z,14.80
2019-05-02T01:06:56.530Z,13.83
2019-05-02T01:12:03.152Z,12.60
2019-05-02T01:17:05.515Z,11.33
2019-05-02T01:22:10.575Z,11.40
2019-05-02T01:27:18.820Z,12.63
2019-05-02T01:32:29.610Z,12.40
2019-05-02T01:37:31.035Z,12.75
2019-05-02T01:42:39.915Z,12.95
2019-05-02T01:47:39.953Z,13.08
2019-05-02T01:52:43.520Z,13.72
2019-05-02T01:57:47.320Z,14.40
2019-05-02T02:02:50.883Z,15.88
2019-05-02T02:07:55.629Z,16.42
2019-05-02T02:13:04.932Z,14.40
2019-05-02T02:18:05.355Z,16.65
2019-05-02T02:23:14.142Z,17.95
2019-05-02T02:28:15.827Z,19.35
2019-05-02T02:33:19.621Z,19.65
2019-05-02T02:38:26.981Z,21.68
2019-05-02T02:43:34.325Z,20.77
2019-05-02T02:48:40.784Z,21.15
2019-05-02T02:53:39.732Z,21.00
2019-05-02T02:58:46.249Z,21.95
2019-05-02T03:03:48.647Z,22.73
2019-05-02T03:08:52.194Z,18.95
2019-05-02T03:19:05.376Z,19.52
2019-05-02T03:24:09.016Z,18.82
2019-05-02T03:29:12.610Z,20.48
2019-05-02T03:34:16.235Z,21.20
2019-05-02T03:39:19.783Z,20.85
2019-05-02T03:44:25.986Z,20.77
2019-05-02T03:49:28.987Z,20.77
2019-05-02T03:54:32.552Z,21.45
2019-05-02T03:59:39.249Z,22.32
2019-05-02T04:04:41.429Z,25.45
2019-05-02T04:09:45.004Z,43.23
2019-05-02T04:14:55.152Z,37.03
2019-05-02T04:19:53.924Z,37.05
2019-05-02T04:24:57.598Z,28.98
2019-05-02T04:30:09.878Z,28.42
2019-05-02T04:35:06.483Z,27.98
2019-05-02T04:40:12.361Z,28.45
2019-05-02T04:45:26.480Z,28.50
2019-05-02T04:50:25.197Z,28.60
2019-05-02T04:55:30.139Z,31.27
2019-05-02T05:00:31.294Z,31.95
2019-05-02T05:05:34.847Z,31.12
2019-05-02T05:10:43.686Z,35.10
2019-05-02T05:15:48.845Z,37.43
2019-05-02T05:20:53.068Z,41.98
2019-05-02T05:26:03.374Z,43.10
2019-05-02T05:31:01.252Z,43.15
2019-05-02T05:36:08.154Z,42.50
2019-05-02T05:41:13.943Z,43.67
2019-05-02T05:46:17.867Z,43.90
2019-05-02T05:51:21.628Z,40.10
2019-05-02T05:56:25.213Z,41.35
2019-05-02T06:01:33.946Z,40.28
2019-05-02T06:06:34.207Z,39.08
2019-05-02T06:11:37.791Z,40.33
2019-05-02T06:16:41.419Z,37.98
2019-05-02T06:21:46.604Z,41.25
2019-05-02T06:26:51.809Z,38.02
2019-05-02T06:31:57.145Z,38.98
2019-05-02T06:37:01.430Z,38.38
2019-05-02T06:42:05.161Z,40.25
2019-05-02T06:47:08.887Z,36.48
2019-05-02T06:52:12.493Z,37.98
2019-05-02T06:57:19.040Z,37.83
2019-05-02T07:02:21.537Z,39.50
2019-05-02T07:07:31.283Z,39.77
2019-05-02T07:12:30.602Z,39.27
2019-05-02T07:17:44.558Z,40.33
2019-05-02T07:22:48.174Z,37.03
2019-05-02T07:27:51.820Z,37.70
2019-05-02T07:32:56.331Z,36.03
2019-05-02T07:38:00.754Z,34.25
2019-05-02T07:43:04.926Z,33.92
2019-05-02T07:48:12.685Z,36.55
2019-05-02T07:53:14.287Z,34.90
2019-05-02T07:58:18.085Z,34.88
2019-05-02T08:03:21.662Z,33.90
2019-05-02T08:08:29.770Z,31.17
2019-05-02T08:13:31.888Z,35.78
2019-05-02T08:18:35.441Z,32.67
2019-05-02T08:23:39.022Z,32.03
2019-05-02T08:28:51.857Z,32.33
2019-05-02T08:33:55.455Z,29.35
2019-05-02T08:38:59.028Z,27.10
2019-05-02T08:44:02.643Z,27.27
2019-05-02T08:49:06.200Z,26.80
2019-05-02T08:54:09.787Z,27.10
2019-05-02T08:59:13.398Z,25.62
2019-05-02T09:04:16.955Z,27.40
2019-05-02T09:09:22.796Z,27.77
2019-05-02T09:14:25.831Z,27.87
2019-05-02T09:19:34.070Z,27.30
2019-05-02T09:24:34.716Z,28.60
2019-05-02T09:29:44.484Z,26.23
2019-05-02T09:34:43.994Z,24.45
2019-05-02T09:39:47.589Z,23.92
2019-05-02T09:44:55.405Z,25.50
2019-05-02T09:50:06.818Z,24.47
2019-05-02T09:55:12.171Z,24.23
2019-05-02T10:00:26.754Z,22.37
2019-05-02T10:05:28.607Z,20.37
2019-05-02T10:10:32.534Z,22.97
2019-05-02T10:15:36.079Z,24.37
2019-05-02T10:20:41.747Z,22.60
2019-05-02T10:25:46.890Z,22.42
2019-05-02T10:30:56.439Z,21.00
2019-05-02T10:35:57.403Z,19.35
2019-05-02T10:41:02.682Z,19.53
2019-05-02T10:46:07.887Z,19.40
2019-05-02T10:51:25.940Z,21.12
2019-05-02T10:56:27.652Z,17.73
2019-05-02T11:01:32.808Z,14.45
2019-05-02T11:06:37.103Z,16.75
2019-05-02T11:11:42.500Z,16.80
2019-05-02T11:16:47.817Z,18.40
2019-05-02T11:21:56.409Z,20.27
2019-05-02T11:26:56.926Z,42.67
2019-05-02T11:32:02.732Z,19.10
2019-05-02T11:37:06.555Z,15.70
2019-05-02T11:42:10.148Z,14.45
2019-05-02T11:47:17.250Z,30.35
2019-05-02T11:52:19.047Z,26.17
2019-05-02T11:57:28.381Z,17.65
2019-05-02T12:02:35.283Z,19.60
2019-05-02T12:07:38.960Z,15.88
2019-05-02T12:12:43.029Z,17.30
2019-05-02T12:17:46.698Z,16.27
2019-05-02T12:22:50.325Z,14.83
2019-05-02T12:27:53.895Z,14.65
2019-05-02T12:32:57.540Z,15.00
2019-05-02T12:38:02.714Z,14.75
2019-05-02T12:43:06.802Z,15.25
2019-05-02T12:48:12.719Z,16.02
2019-05-02T12:53:15.732Z,15.68
2019-05-02T12:58:19.532Z,15.00
2019-05-02T13:03:43.646Z,15.40
2019-05-02T13:08:52.262Z,16.40
2019-05-02T13:13:55.667Z,15.97
2019-05-02T13:19:03.110Z,17.45
2019-05-02T13:24:13.277Z,16.05
2019-05-02T13:29:15.252Z,16.90
2019-05-02T13:34:22.087Z,15.00
2019-05-02T13:39:33.686Z,14.13
2019-05-02T13:44:38.878Z,13.00
2019-05-02T13:49:53.624Z,13.13
2019-05-02T13:54:49.728Z,12.28
2019-05-02T13:59:53.375Z,13.28
2019-05-02T14:04:57.098Z,11.35
2019-05-02T14:10:02.692Z,11.97
2019-05-02T14:15:07.457Z,14.60
2019-05-02T14:20:13.880Z,13.78
2019-05-02T14:25:17.454Z,13.70
2019-05-02T14:30:35.705Z,14.93
2019-05-02T14:35:29.594Z,13.88
2019-05-02T14:40:34.242Z,15.03
2019-05-02T14:45:38.051Z,13.53
2019-05-02T14:50:45.582Z,13.50
2019-05-02T14:55:48.599Z,12.60
2019-05-02T15:00:53.892Z,13.15
2019-05-02T15:05:59.077Z,12.25
2019-05-02T15:11:03.444Z,11.95
2019-05-02T15:16:10.538Z,11.50
2019-05-02T15:21:22.899Z,11.10
2019-05-02T15:26:31.169Z,11.70
2019-05-02T15:31:34.362Z,12.00
2019-05-02T15:36:44.058Z,10.23
2019-05-02T15:41:44.808Z,8.90
2019-05-02T15:46:49.415Z,8.60
2019-05-02T15:51:53.014Z,10.88
2019-05-02T15:57:02.857Z,10.00
2019-05-02T16:02:04.001Z,10.03
2019-05-02T16:07:08.524Z,10.10
2019-05-02T16:12:12.442Z,9.23
2019-05-02T16:17:17.693Z,10.90
2019-05-02T16:22:22.700Z,13.55
2019-05-02T16:27:44.538Z,11.55
2019-05-02T16:32:52.513Z,11.40
2019-05-02T16:37:56.266Z,12.63
2019-05-02T16:42:59.870Z,11.48
2019-05-02T16:48:03.518Z,11.70
2019-05-02T16:53:07.277Z,11.75
2019-05-02T16:58:11.852Z,12.05
2019-05-02T17:03:17.272Z,12.75
2019-05-02T17:08:41.880Z,11.53
2019-05-02T17:13:46.476Z,12.88
2019-05-02T17:18:55.002Z,11.95
2019-05-02T17:23:55.391Z,10.53
2019-05-02T17:28:59.008Z,11.33
2019-05-02T17:34:02.859Z,13.00
2019-05-02T17:39:08.311Z,11.33
2019-05-02T17:44:12.972Z,11.75
2019-05-02T17:49:17.390Z,11.07
2019-05-02T17:54:22.691Z,11.15
2019-05-02T17:59:28.307Z,13.25
2019-05-02T18:04:32.515Z,11.00
2019-05-02T18:09:36.217Z,10.23
2019-05-02T18:14:42.104Z,10.80
2019-05-02T18:19:45.798Z,10.72
2019-05-02T18:24:49.381Z,10.63
2019-05-02T18:29:52.964Z,9.53
2019-05-02T18:35:01.208Z,10.05
2019-05-02T18:40:03.062Z,9.68
2019-05-02T18:45:12.912Z,10.93
2019-05-02T18:50:36.855Z,10.85
2019-05-02T18:55:42.198Z,12.10
2019-05-02T19:00:45.970Z,13.88
2019-05-02T19:05:51.672Z,13.60
2019-05-02T19:11:05.393Z,15.23
2019-05-02T19:16:02.016Z,14.63
2019-05-02T19:21:05.708Z,12.35
2019-05-02T19:26:10.348Z,12.53
2019-05-02T19:31:14.594Z,12.88
2019-05-02T19:36:24.842Z,11.78
2019-05-02T19:41:23.475Z,13.30
2019-05-02T19:46:34.690Z,13.08
2019-05-02T19:51:32.466Z,13.03
2019-05-02T19:56:45.373Z,13.78
2019-05-02T20:01:41.344Z,13.25
2019-05-02T20:06:44.928Z,14.77
2019-05-02T20:11:48.534Z,14.87
2019-05-02T20:16:53.301Z,15.58
2019-05-02T20:22:04.817Z,18.32
2019-05-02T20:27:03.838Z,17.40
2019-05-02T20:32:07.435Z,17.40
2019-05-02T20:37:12.762Z,17.23
2019-05-02T20:42:16.452Z,19.70
2019-05-02T20:47:22.535Z,16.65
2019-05-02T20:52:26.132Z,18.35
2019-05-02T20:57:31.686Z,18.17
2019-05-02T21:02:35.051Z,18.62
2019-05-02T21:07:42.285Z,19.45
2019-05-02T21:12:45.490Z,19.52
2019-05-02T21:17:49.087Z,19.12
2019-05-02T21:22:53.105Z,19.50
2019-05-02T21:27:56.819Z,21.02
2019-05-02T21:33:00.415Z,22.67
2019-05-02T21:38:04.843Z,24.90
2019-05-02T21:43:08.469Z,19.50
2019-05-02T21:48:12.259Z,22.07
2019-05-02T21:53:17.396Z,20.25
2019-05-02T21:58:21.575Z,21.70
2019-05-02T22:03:25.341Z,22.65
2019-05-02T22:08:28.950Z,28.10
2019-05-02T22:13:32.502Z,27.35
2019-05-02T22:18:36.134Z,22.87
2019-05-02T22:23:39.990Z,23.95
2019-05-02T22:28:43.605Z,26.95
2019-05-02T22:33:47.434Z,27.35
2019-05-02T22:39:09.046Z,23.85
2019-05-02T22:44:12.804Z,23.67
2019-05-02T22:49:16.669Z,21.97
2019-05-02T22:54:29.962Z,25.55
2019-05-02T22:59:25.852Z,24.18
2019-05-02T23:04:29.403Z,26.60
2019-05-02T23:09:33.067Z,24.63
2019-05-02T23:14:36.729Z,25.65
2019-05-02T23:19:42.194Z,28.00
2019-05-02T23:24:53.654Z,25.80
2019-05-02T23:29:57.238Z,25.50
2019-05-02T23:35:01.917Z,25.65
2019-05-02T23:40:06.269Z,23.00
2019-05-02T23:45:11.979Z,22.70
2019-05-02T23:50:15.689Z,23.53
2019-05-02T23:55:19.291Z,23.83
